createdAt,value
2018-01-07T13:42:11.727Z,8.80
2018-01-07T13:43:13.064Z,8.80
2018-01-07T13:44:14.161Z,8.80
2018-01-07T13:45:15.285Z,8.80
2018-01-07T13:46:16.363Z,8.90
2018-01-07T13:47:17.509Z,9.00
2018-01-07T13:48:18.587Z,9.10
2018-01-07T13:49:19.662Z,9.20
2018-01-07T13:50:20.731Z,9.30
2018-01-07T13:51:21.868Z,9.20
2018-01-07T13:52:23.002Z,9.50
2018-01-07T13:53:24.133Z,9.50
2018-01-07T13:54:25.200Z,9.60
2018-01-07T13:55:26.317Z,9.70
2018-01-07T13:56:27.408Z,9.80
2018-01-07T13:57:29.252Z,9.90
2018-01-07T13:58:31.091Z,9.80
2018-01-07T13:59:32.174Z,10.00
2018-01-07T14:00:33.286Z,10.00
2018-01-07T14:01:34.520Z,10.10
2018-01-07T14:02:35.615Z,10.10
2018-01-07T14:03:36.718Z,10.20
2018-01-07T14:04:38.568Z,10.20
2018-01-07T14:05:39.642Z,10.20
2018-01-07T14:06:40.772Z,10.30
2018-01-07T14:07:41.898Z,10.30
2018-01-07T14:08:42.974Z,10.30
2018-01-07T14:09:44.805Z,10.40
2018-01-07T14:10:45.867Z,10.40
2018-01-07T14:11:46.939Z,10.40
2018-01-07T14:12:48.046Z,10.40
2018-01-07T14:13:49.116Z,10.40
2018-01-07T14:14:50.191Z,10.50
2018-01-07T14:15:51.292Z,10.50
2018-01-07T14:16:53.124Z,10.50
2018-01-07T14:17:54.212Z,10.50
2018-01-07T14:18:55.327Z,10.30
2018-01-07T14:19:57.143Z,10.60
2018-01-07T14:20:58.303Z,10.50
2018-01-07T14:22:00.174Z,10.60
2018-01-07T14:23:01.241Z,10.60
2018-01-07T14:24:02.323Z,10.50
2018-01-07T14:25:04.136Z,10.50
2018-01-07T14:26:05.260Z,10.60
2018-01-07T14:27:06.365Z,10.60
2018-01-07T14:28:07.467Z,10.60
2018-01-07T14:29:09.337Z,10.60
2018-01-07T14:30:10.402Z,10.60
2018-01-07T14:31:11.516Z,10.60
2018-01-07T14:32:12.688Z,10.60
2018-01-07T14:33:13.775Z,10.60
2018-01-07T14:34:14.855Z,10.60
2018-01-07T14:35:15.995Z,10.60
2018-01-07T14:36:17.088Z,10.60
2018-01-07T14:37:18.209Z,10.60
2018-01-07T14:38:19.279Z,10.60
2018-01-07T14:39:20.355Z,10.70
2018-01-07T14:40:21.443Z,10.60
2018-01-07T14:41:22.552Z,10.60
2018-01-07T14:42:23.633Z,10.60
2018-01-07T14:43:24.757Z,10.60
2018-01-07T14:44:25.888Z,10.60
2018-01-07T14:45:26.982Z,10.60
2018-01-07T14:46:28.113Z,10.60
2018-01-07T14:47:29.205Z,10.60
2018-01-07T14:48:31.019Z,10.60
2018-01-07T14:49:32.152Z,10.60
2018-01-07T14:50:33.271Z,10.70
2018-01-07T14:51:34.377Z,10.70
2018-01-07T14:52:35.516Z,10.60
2018-01-07T14:53:36.644Z,10.70
2018-01-07T14:54:37.719Z,10.60
2018-01-07T14:55:38.857Z,10.70
2018-01-07T14:56:39.978Z,10.60
2018-01-07T14:57:41.072Z,10.60
2018-01-07T14:58:42.165Z,10.60
2018-01-07T14:59:43.293Z,10.70
2018-01-07T15:00:44.384Z,10.70
2018-01-07T15:01:45.514Z,10.50
2018-01-07T15:02:46.595Z,10.70
2018-01-07T15:03:47.672Z,10.70
2018-01-07T15:04:48.816Z,10.70
2018-01-07T15:05:49.933Z,10.70
2018-01-07T15:06:51.046Z,10.70
2018-01-07T15:07:52.907Z,10.70
2018-01-07T15:08:54.765Z,10.70
2018-01-07T15:09:55.839Z,10.70
2018-01-07T15:10:56.964Z,10.70
2018-01-07T15:11:58.153Z,10.80
2018-01-07T15:12:59.323Z,10.70
2018-01-07T15:14:01.361Z,10.80
2018-01-07T15:15:02.525Z,10.80
2018-01-07T15:16:03.608Z,10.80
2018-01-07T15:17:05.455Z,10.80
2018-01-07T15:18:07.254Z,10.70
2018-01-07T15:19:08.371Z,10.70
2018-01-07T15:20:09.440Z,10.70
2018-01-07T15:21:10.539Z,10.70
2018-01-07T15:22:11.625Z,10.70
2018-01-07T15:23:13.446Z,10.70
2018-01-07T15:24:14.539Z,10.70
2018-01-07T15:25:15.643Z,10.60
2018-01-07T15:26:17.451Z,10.70
2018-01-07T15:27:18.566Z,10.70
2018-01-07T15:28:20.317Z,10.70
2018-01-07T15:29:21.395Z,10.70
2018-01-07T15:30:22.785Z,10.70
2018-01-07T15:31:23.917Z,10.70
2018-01-07T15:32:24.980Z,10.70
2018-01-07T15:33:26.094Z,10.70
2018-01-07T15:34:27.216Z,10.70
2018-01-07T15:35:28.344Z,10.70
2018-01-07T15:36:29.447Z,10.70
2018-01-07T15:37:31.284Z,10.70
2018-01-07T15:38:32.409Z,10.70
2018-01-07T15:39:33.568Z,10.70
2018-01-07T15:40:35.430Z,10.80
2018-01-07T15:41:36.508Z,10.70
2018-01-07T15:42:37.629Z,10.70
2018-01-07T15:43:38.754Z,10.80
2018-01-07T15:44:39.884Z,10.80
2018-01-07T15:45:41.022Z,10.80
2018-01-07T15:46:42.243Z,10.70
2018-01-07T15:47:44.072Z,10.70
2018-01-07T15:48:45.958Z,10.80
2018-01-07T15:49:47.043Z,10.70
2018-01-07T15:50:48.207Z,10.70
2018-01-07T15:51:49.397Z,10.80
2018-01-07T15:52:50.530Z,10.80
2018-01-07T15:53:51.654Z,10.80
2018-01-07T15:54:52.801Z,10.80
2018-01-07T15:55:53.943Z,10.80
2018-01-07T15:56:55.814Z,10.70
2018-01-07T15:57:57.737Z,10.70
2018-01-07T15:58:59.143Z,10.70
2018-01-07T16:00:00.403Z,10.80
2018-01-07T16:01:01.581Z,10.70
2018-01-07T16:02:02.733Z,10.90
2018-01-07T16:03:03.804Z,10.70
2018-01-07T16:04:04.882Z,10.70
2018-01-07T16:05:05.975Z,10.60
2018-01-07T16:06:07.086Z,10.70
2018-01-07T16:07:08.163Z,10.70
2018-01-07T16:08:10.055Z,10.70
2018-01-07T16:09:11.852Z,10.70
2018-01-07T16:10:13.749Z,10.80
2018-01-07T16:11:14.840Z,10.70
2018-01-07T16:12:16.724Z,10.70
2018-01-07T16:13:17.913Z,10.70
2018-01-07T16:14:19.049Z,10.80
2018-01-07T16:15:20.165Z,10.80
2018-01-07T16:16:21.300Z,10.80
2018-01-07T16:17:22.462Z,10.70
2018-01-07T16:18:24.342Z,10.70
2018-01-07T16:19:25.521Z,10.70
2018-01-07T16:20:26.581Z,10.70
2018-01-07T16:21:27.700Z,10.70
2018-01-07T16:22:28.864Z,10.70
2018-01-07T16:23:30.726Z,10.60
2018-01-07T16:24:31.834Z,10.60
2018-01-07T16:25:32.980Z,10.60
2018-01-07T16:26:34.839Z,10.60
2018-01-07T16:27:35.946Z,10.60
2018-01-07T16:28:37.038Z,10.60
2018-01-07T16:29:38.839Z,10.70
2018-01-07T16:30:40.710Z,10.70
2018-01-07T16:31:41.845Z,10.70
2018-01-07T16:32:42.964Z,10.70
2018-01-07T16:33:44.093Z,10.70
2018-01-07T16:34:45.201Z,10.70
2018-01-07T16:35:46.373Z,10.70
2018-01-07T16:36:47.517Z,10.70
2018-01-07T16:37:48.623Z,10.70
2018-01-07T16:38:50.470Z,10.70
2018-01-07T16:39:51.577Z,10.70
2018-01-07T16:40:52.729Z,10.70
2018-01-07T16:41:53.871Z,10.70
2018-01-07T16:42:54.995Z,10.70
2018-01-07T16:43:56.098Z,10.70
2018-01-07T16:44:57.217Z,10.70
2018-01-07T16:45:58.317Z,10.70
2018-01-07T16:46:59.431Z,10.60
2018-01-07T16:48:01.285Z,10.60
2018-01-07T16:49:03.141Z,10.60
2018-01-07T16:50:04.999Z,10.60
2018-01-07T16:51:06.068Z,10.70
2018-01-07T16:52:07.234Z,10.70
2018-01-07T16:53:08.348Z,10.70
2018-01-07T16:54:09.481Z,10.70
2018-01-07T16:55:10.581Z,10.70
2018-01-07T16:56:11.689Z,10.60
2018-01-07T16:57:12.829Z,10.60
2018-01-07T16:58:14.745Z,10.60
2018-01-07T16:59:15.910Z,10.60
2018-01-07T17:00:18.753Z,10.60
2018-01-07T17:01:19.862Z,10.60
2018-01-07T17:02:21.006Z,10.70
2018-01-07T17:03:22.125Z,10.70
2018-01-07T17:04:23.266Z,10.70
2018-01-07T17:05:24.393Z,10.70
2018-01-07T17:06:27.045Z,10.70
2018-01-07T17:07:28.813Z,10.70
2018-01-07T17:08:30.599Z,10.60
2018-01-07T17:09:31.662Z,10.60
2018-01-07T17:10:32.771Z,10.60
2018-01-07T17:11:34.647Z,10.70
2018-01-07T17:12:35.759Z,10.70
2018-01-07T17:13:36.867Z,10.70
2018-01-07T17:14:37.988Z,10.60
2018-01-07T17:15:39.094Z,10.60
2018-01-07T17:16:40.214Z,10.60
2018-01-07T17:17:41.484Z,10.60
2018-01-07T17:18:46.756Z,10.60
2018-01-07T17:19:48.331Z,10.60
2018-01-07T17:20:49.408Z,10.60
2018-01-07T17:21:50.525Z,10.60
2018-01-07T17:22:51.634Z,10.60
2018-01-07T17:23:52.736Z,10.60
2018-01-07T17:24:54.571Z,10.60
2018-01-07T17:25:55.694Z,10.60
2018-01-07T17:26:56.797Z,10.60
2018-01-07T17:27:57.947Z,10.60
2018-01-07T17:28:59.215Z,10.60
2018-01-07T17:30:00.341Z,10.60
2018-01-07T17:31:01.445Z,10.60
2018-01-07T17:32:02.562Z,10.60
2018-01-07T17:33:03.689Z,10.60
2018-01-07T17:34:04.808Z,10.50
2018-01-07T17:35:05.937Z,10.50
2018-01-07T17:36:07.053Z,10.50
2018-01-07T17:37:08.176Z,10.50
2018-01-07T17:38:09.389Z,10.50
2018-01-07T17:39:10.483Z,10.60
2018-01-07T17:40:11.598Z,10.50
2018-01-07T17:41:12.708Z,10.50
2018-01-07T17:42:13.843Z,10.40
2018-01-07T17:43:15.548Z,10.40
2018-01-07T17:44:16.686Z,10.50
2018-01-07T17:45:17.784Z,10.40
2018-01-07T17:46:18.910Z,10.40
2018-01-07T17:47:20.763Z,10.50
2018-01-07T17:48:22.618Z,10.50
2018-01-07T17:49:23.758Z,10.50
2018-01-07T17:50:24.977Z,10.50
2018-01-07T17:51:26.821Z,10.50
2018-01-07T17:52:27.943Z,10.50
2018-01-07T17:53:29.071Z,10.60
2018-01-07T17:54:30.209Z,10.50
2018-01-07T17:55:31.357Z,10.50
2018-01-07T17:56:32.460Z,10.50
2018-01-07T17:57:33.595Z,10.50
2018-01-07T17:58:35.535Z,10.50
2018-01-07T17:59:37.332Z,10.50
2018-01-07T18:00:38.462Z,10.50
2018-01-07T18:01:40.309Z,10.50
2018-01-07T18:02:41.408Z,10.50
2018-01-07T18:03:42.523Z,10.50
2018-01-07T18:04:43.624Z,10.40
2018-01-07T18:05:44.734Z,10.40
2018-01-07T18:06:46.590Z,10.40
2018-01-07T18:07:47.731Z,10.40
2018-01-07T18:08:48.844Z,10.40
2018-01-07T18:09:50.639Z,10.40
2018-01-07T18:10:51.738Z,10.40
2018-01-07T18:11:53.581Z,10.40
2018-01-07T18:12:55.450Z,10.40
2018-01-07T18:13:56.516Z,10.40
2018-01-07T18:14:57.580Z,10.40
2018-01-07T18:15:58.705Z,10.50
2018-01-07T18:16:59.824Z,10.50
2018-01-07T18:18:00.935Z,10.50
2018-01-07T18:19:02.064Z,10.50
2018-01-07T18:20:03.191Z,10.50
2018-01-07T18:21:04.306Z,10.50
2018-01-07T18:22:06.150Z,10.50
2018-01-07T18:23:08.021Z,10.50
2018-01-07T18:24:09.114Z,10.50
2018-01-07T18:25:10.230Z,10.50
2018-01-07T18:26:11.364Z,10.50
2018-01-07T18:27:12.504Z,10.50
2018-01-07T18:28:13.652Z,10.40
2018-01-07T18:29:14.790Z,10.50
2018-01-07T18:30:15.938Z,10.50
2018-01-07T18:31:17.798Z,10.40
2018-01-07T18:32:18.918Z,10.40
2018-01-07T18:33:20.054Z,10.40
2018-01-07T18:34:21.226Z,10.50
2018-01-07T18:35:22.325Z,10.40
2018-01-07T18:36:23.443Z,10.40
2018-01-07T18:37:24.535Z,10.50
2018-01-07T18:38:25.676Z,10.40
2018-01-07T18:39:26.791Z,10.40
2018-01-07T18:40:27.911Z,10.40
2018-01-07T18:41:29.054Z,10.40
2018-01-07T18:42:30.152Z,10.30
2018-01-07T18:43:32.009Z,10.30
2018-01-07T18:44:33.134Z,10.30
2018-01-07T18:45:34.246Z,10.40
2018-01-07T18:46:36.110Z,10.40
2018-01-07T18:47:37.980Z,10.40
2018-01-07T18:48:39.126Z,10.30
2018-01-07T18:49:40.236Z,10.40
2018-01-07T18:50:42.091Z,10.40
2018-01-07T18:51:43.216Z,10.40
2018-01-07T18:52:45.064Z,10.40
2018-01-07T18:53:46.932Z,10.40
2018-01-07T18:54:48.025Z,10.40
2018-01-07T18:55:49.129Z,10.40
2018-01-07T18:56:50.254Z,10.40
2018-01-07T18:57:51.362Z,10.40
2018-01-07T18:58:52.499Z,10.40
2018-01-07T18:59:53.611Z,10.40
2018-01-07T19:01:01.571Z,10.50
2018-01-07T19:02:02.685Z,10.50
2018-01-07T19:03:03.786Z,10.50
2018-01-07T19:04:04.949Z,10.50
2018-01-07T19:05:06.062Z,10.50
2018-01-07T19:06:07.178Z,10.50
2018-01-07T19:07:09.035Z,10.50
2018-01-07T19:08:10.154Z,10.60
2018-01-07T19:09:11.307Z,10.50
2018-01-07T19:10:12.450Z,10.50
2018-01-07T19:11:13.553Z,10.50
2018-01-07T19:12:15.441Z,10.60
2018-01-07T19:13:16.535Z,10.60
2018-01-07T19:14:17.659Z,10.60
2018-01-07T19:15:19.518Z,10.50
2018-01-07T19:16:20.625Z,10.50
2018-01-07T19:17:21.744Z,10.50
2018-01-07T19:18:22.863Z,10.50
2018-01-07T19:19:23.978Z,10.50
2018-01-07T19:20:25.073Z,10.50
2018-01-07T19:21:26.933Z,10.50
2018-01-07T19:22:28.044Z,10.50
2018-01-07T19:23:29.178Z,10.50
2018-01-07T19:24:30.294Z,10.50
2018-01-07T19:25:31.438Z,10.50
2018-01-07T19:26:32.559Z,10.30
2018-01-07T19:27:33.692Z,10.50
2018-01-07T19:28:34.830Z,10.50
2018-01-07T19:29:36.457Z,10.50
2018-01-07T19:30:37.933Z,10.50
2018-01-07T19:31:39.356Z,10.60
2018-01-07T19:32:40.708Z,10.60
2018-01-07T19:33:42.632Z,10.60
2018-01-07T19:34:44.150Z,10.60
2018-01-07T19:35:45.419Z,10.70
2018-01-07T19:36:46.542Z,10.70
2018-01-07T19:37:47.658Z,10.70
2018-01-07T19:38:48.802Z,10.70
2018-01-07T19:39:49.935Z,10.70
2018-01-07T19:40:51.072Z,10.70
2018-01-07T19:41:53.953Z,10.70
2018-01-07T19:42:55.102Z,10.70
2018-01-07T19:43:56.280Z,10.70
2018-01-07T19:44:58.171Z,10.80
2018-01-07T19:45:59.330Z,10.70
2018-01-07T19:47:00.467Z,10.80
2018-01-07T19:48:01.643Z,10.80
2018-01-07T19:49:02.779Z,10.80
2018-01-07T19:50:03.999Z,10.70
2018-01-07T19:51:05.158Z,10.70
2018-01-07T19:52:06.295Z,10.70
2018-01-07T19:53:07.444Z,10.80
2018-01-07T19:54:08.596Z,10.80
2018-01-07T19:55:09.745Z,10.70
2018-01-07T19:56:10.913Z,10.80
2018-01-07T19:57:12.048Z,10.80
2018-01-07T19:58:13.231Z,10.80
2018-01-07T19:59:15.011Z,10.80
2018-01-07T20:00:16.174Z,10.80
2018-01-07T20:01:17.335Z,10.80
2018-01-07T20:02:18.555Z,10.80
2018-01-07T20:03:19.781Z,10.80
2018-01-07T20:04:20.979Z,10.80
2018-01-07T20:05:22.888Z,10.80
2018-01-07T20:06:24.047Z,10.80
2018-01-07T20:07:25.199Z,10.80
2018-01-07T20:08:26.360Z,10.90
2018-01-07T20:09:27.532Z,10.80
2018-01-07T20:10:28.674Z,10.80
2018-01-07T20:11:29.817Z,10.80
2018-01-07T20:12:30.983Z,10.80
2018-01-07T20:13:32.152Z,10.80
2018-01-07T20:14:33.314Z,10.80
2018-01-07T20:15:34.487Z,10.80
2018-01-07T20:16:35.669Z,10.80
2018-01-07T20:17:36.798Z,10.80
2018-01-07T20:18:37.933Z,10.80
2018-01-07T20:19:39.066Z,10.80
2018-01-07T20:20:40.196Z,10.80
2018-01-07T20:21:41.373Z,10.80
2018-01-07T20:22:43.428Z,10.90
2018-01-07T20:23:44.555Z,10.90
2018-01-07T20:24:45.700Z,10.90
2018-01-07T20:25:47.602Z,10.90
2018-01-07T20:26:48.751Z,10.90
2018-01-07T20:27:49.903Z,10.90
2018-01-07T20:28:51.045Z,11.00
2018-01-07T20:29:52.187Z,10.90
2018-01-07T20:30:53.340Z,10.90
2018-01-07T20:31:55.262Z,10.90
2018-01-07T20:32:56.413Z,10.90
2018-01-07T20:33:58.275Z,10.90
2018-01-07T20:34:59.435Z,10.90
2018-01-07T20:36:00.583Z,10.90
2018-01-07T20:37:01.769Z,10.90
2018-01-07T20:38:02.913Z,10.90
2018-01-07T20:39:04.067Z,10.90
2018-01-07T20:40:05.247Z,10.90
2018-01-07T20:41:06.410Z,10.90
2018-01-07T20:42:07.563Z,10.90
2018-01-07T20:43:09.484Z,10.90
2018-01-07T20:44:11.454Z,10.90
2018-01-07T20:45:12.590Z,10.90
2018-01-07T20:46:14.552Z,10.90
2018-01-07T20:47:15.683Z,10.90
2018-01-07T20:48:16.817Z,10.90
2018-01-07T20:49:17.952Z,10.90
2018-01-07T20:50:19.091Z,10.80
2018-01-07T20:51:20.255Z,10.90
2018-01-07T20:52:21.428Z,11.00
2018-01-07T20:53:23.310Z,11.00
2018-01-07T20:54:24.484Z,10.90
2018-01-07T20:55:25.610Z,11.00
2018-01-07T20:56:26.830Z,11.00
2018-01-07T20:57:27.966Z,11.00
2018-01-07T20:58:29.091Z,11.00
2018-01-07T20:59:30.233Z,11.00
2018-01-07T21:00:31.386Z,11.00
2018-01-07T21:01:32.559Z,11.00
2018-01-07T21:02:34.981Z,11.00
2018-01-07T21:03:37.224Z,11.00
2018-01-07T21:04:39.659Z,11.00
2018-01-07T21:05:41.580Z,11.00
2018-01-07T21:06:44.290Z,11.00
2018-01-07T21:07:46.810Z,11.10
2018-01-07T21:08:48.957Z,11.00
2018-01-07T21:09:51.310Z,11.10
2018-01-07T21:10:54.463Z,11.00
2018-01-07T21:11:57.013Z,11.00
2018-01-07T21:12:58.943Z,11.00
2018-01-07T21:14:04.123Z,11.00
2018-01-07T21:15:27.465Z,11.00
2018-01-07T21:16:50.943Z,11.00
2018-01-07T21:18:06.656Z,11.00
2018-01-07T21:19:09.010Z,11.00
2018-01-07T21:20:12.221Z,11.00
2018-01-07T21:21:21.589Z,11.00
2018-01-07T21:22:31.723Z,11.00
2018-01-07T21:23:40.817Z,11.00
2018-01-07T21:24:53.225Z,11.10
2018-01-07T21:25:55.598Z,11.00
2018-01-07T21:27:00.090Z,11.00
2018-01-07T21:28:01.490Z,11.00
2018-01-07T21:29:02.632Z,11.00
2018-01-07T21:30:03.767Z,11.00
2018-01-07T21:31:04.890Z,11.00
2018-01-07T21:32:06.032Z,11.00
2018-01-07T21:33:07.165Z,11.00
2018-01-07T21:34:08.279Z,11.00
2018-01-07T21:35:09.419Z,11.00
2018-01-07T21:36:10.543Z,11.00
2018-01-07T21:37:11.678Z,11.00
2018-01-07T21:38:12.810Z,11.00
2018-01-07T21:39:13.936Z,11.00
2018-01-07T21:40:15.054Z,11.00
2018-01-07T21:41:16.157Z,11.00
2018-01-07T21:42:18.038Z,11.00
2018-01-07T21:43:19.146Z,11.00
2018-01-07T21:44:20.262Z,11.00
2018-01-07T21:45:22.117Z,11.00
2018-01-07T21:46:23.220Z,11.00
2018-01-07T21:47:24.342Z,11.00
2018-01-07T21:48:25.459Z,11.00
2018-01-07T21:49:26.604Z,11.00
2018-01-07T21:50:27.735Z,11.00
2018-01-07T21:51:28.866Z,11.00
2018-01-07T21:52:29.984Z,11.00
2018-01-07T21:53:31.091Z,11.00
2018-01-07T21:54:32.215Z,11.00
2018-01-07T21:55:33.333Z,11.00
2018-01-07T21:56:34.439Z,11.10
2018-01-07T21:57:35.577Z,11.10
2018-01-07T21:58:36.699Z,11.00
2018-01-07T21:59:44.757Z,11.10
2018-01-07T22:00:58.248Z,11.10
2018-01-07T22:02:09.455Z,11.10
2018-01-07T22:03:22.759Z,11.10
2018-01-07T22:04:36.099Z,11.10
2018-01-07T22:05:37.927Z,11.10
2018-01-07T22:06:51.428Z,11.10
2018-01-07T22:07:52.543Z,11.10
2018-01-07T22:08:53.646Z,11.00
2018-01-07T22:09:54.778Z,11.00
2018-01-07T22:10:55.894Z,11.00
2018-01-07T22:11:56.992Z,11.00
2018-01-07T22:12:58.130Z,11.00
2018-01-07T22:13:59.258Z,11.00
2018-01-07T22:15:00.362Z,11.00
2018-01-07T22:16:01.482Z,11.10
2018-01-07T22:17:02.619Z,11.10
2018-01-07T22:18:03.747Z,11.10
2018-01-07T22:19:04.871Z,11.10
2018-01-07T22:20:06.002Z,11.10
2018-01-07T22:22:03.103Z,11.10
2018-01-07T22:23:04.235Z,11.10
2018-01-07T22:24:05.343Z,10.90
2018-01-07T22:25:06.472Z,11.10
2018-01-07T22:26:07.572Z,11.10
2018-01-07T22:27:08.801Z,11.10
2018-01-07T22:28:10.007Z,10.90
2018-01-07T22:29:11.174Z,11.10
2018-01-07T22:30:12.311Z,11.10
2018-01-07T22:31:13.485Z,11.10
2018-01-07T22:32:14.635Z,11.10
2018-01-07T22:33:15.770Z,11.10
2018-01-07T22:34:16.889Z,11.10
2018-01-07T22:35:18.010Z,11.10
2018-01-07T22:36:19.854Z,11.10
2018-01-07T22:37:21.003Z,11.10
2018-01-07T22:38:22.136Z,11.10
2018-01-07T22:39:23.245Z,11.10
2018-01-07T22:40:24.353Z,11.10
2018-01-07T22:41:25.484Z,11.10
2018-01-07T22:42:27.342Z,11.10
2018-01-07T22:43:29.202Z,11.10
2018-01-07T22:44:30.394Z,11.10
2018-01-07T22:45:31.523Z,11.10
2018-01-07T22:46:32.643Z,11.10
2018-01-07T22:47:40.011Z,11.10
2018-01-07T22:48:41.134Z,11.10
2018-01-07T22:49:42.251Z,11.10
2018-01-07T22:50:43.368Z,11.20
2018-01-07T22:51:45.231Z,11.10
2018-01-07T22:52:46.339Z,11.10
2018-01-07T22:53:47.474Z,11.10
2018-01-07T22:54:48.584Z,11.10
2018-01-07T22:55:49.703Z,11.10
2018-01-07T22:56:50.830Z,11.10
2018-01-07T22:57:51.926Z,11.10
2018-01-07T22:58:53.768Z,11.10
2018-01-07T22:59:55.055Z,11.10
2018-01-07T23:00:56.529Z,11.10
2018-01-07T23:01:57.770Z,11.10
2018-01-07T23:02:59.151Z,11.10
2018-01-07T23:04:00.278Z,11.20
2018-01-07T23:05:01.410Z,11.10
2018-01-07T23:06:02.566Z,11.10
2018-01-07T23:07:03.698Z,11.10
2018-01-07T23:08:04.862Z,11.10
2018-01-07T23:09:06.749Z,11.20
2018-01-07T23:10:07.866Z,11.10
2018-01-07T23:11:09.004Z,11.10
2018-01-07T23:12:10.873Z,11.10
2018-01-07T23:13:11.999Z,11.10
2018-01-07T23:14:13.146Z,11.20
2018-01-07T23:15:14.292Z,11.10
2018-01-07T23:16:15.466Z,11.10
2018-01-07T23:17:16.595Z,11.20
2018-01-07T23:18:17.724Z,11.30
2018-01-07T23:19:18.841Z,11.20
2018-01-07T23:20:19.966Z,11.20
2018-01-07T23:21:21.094Z,11.20
2018-01-07T23:22:22.236Z,11.20
2018-01-07T23:23:23.361Z,11.20
2018-01-07T23:24:24.519Z,11.10
2018-01-07T23:25:25.665Z,11.10
2018-01-07T23:26:26.789Z,11.10
2018-01-07T23:27:27.902Z,11.10
2018-01-07T23:28:29.025Z,11.10
2018-01-07T23:29:30.163Z,11.10
2018-01-07T23:30:31.280Z,11.10
2018-01-07T23:31:32.376Z,11.10
2018-01-07T23:32:33.482Z,11.10
2018-01-07T23:33:34.631Z,11.10
2018-01-07T23:34:35.748Z,11.20
2018-01-07T23:35:36.865Z,11.10
2018-01-07T23:36:37.981Z,11.10
2018-01-07T23:37:39.109Z,11.10
2018-01-07T23:38:40.238Z,11.10
2018-01-07T23:39:41.348Z,11.10
2018-01-07T23:40:42.460Z,11.10
2018-01-07T23:41:43.581Z,11.10
2018-01-07T23:42:44.693Z,11.10
2018-01-07T23:43:45.913Z,11.10
2018-01-07T23:44:47.050Z,11.10
2018-01-07T23:45:48.127Z,11.10
2018-01-07T23:47:00.871Z,11.10
2018-01-07T23:49:40.582Z,11.10
2018-01-07T23:52:20.925Z,11.10
2018-01-07T23:53:22.027Z,11.10
2018-01-07T23:54:23.117Z,11.10
2018-01-07T23:55:24.994Z,11.10
2018-01-07T23:56:26.087Z,11.10
2018-01-07T23:57:27.173Z,10.90
2018-01-07T23:58:28.252Z,11.10
2018-01-07T23:59:29.355Z,11.10
